West Hempstead, New York
Current Conditions -  °F | °C
As of 6:51 AM on Thursday 23 Oct 2014 (Local Time) from KJFK Reporting Station
Overcast Overcast  
Wind Chill: 52°   Ceiling: 2800
Heat Index: 52°   Visibility: 10mi
Dew Point: 47°   Wind: 21mph
Humidity: 83%   Direction: 340°NNW
Pressure: 29.68"   Gusts: NA
Location:  40.7°N, 73.65°W
Report Text: KJFK 231051Z 34018KT 10SM BKN028 BKN047 OVC070 11/08 A2968 RMK AO2 RAE49 SLP051 P0001 T01110083 $
Loading
Personal Weather Stations






























Interactive Weather Map New forecast layout! Learn more

10-Day Weather Forecast

Advertisements
Track Severe Weather on mobile